createdAt,value
2017-12-21T00:02:00.534Z,17.80
2017-12-21T00:04:26.715Z,19.10
2017-12-21T00:06:52.878Z,18.13
2017-12-21T00:09:19.040Z,18.43
2017-12-21T00:11:45.235Z,18.30
2017-12-21T00:14:11.409Z,18.03
2017-12-21T00:16:37.562Z,19.37
2017-12-21T00:19:04.492Z,19.60
2017-12-21T00:21:30.644Z,18.00
2017-12-21T00:23:57.590Z,19.33
2017-12-21T00:26:23.753Z,17.57
2017-12-21T00:28:49.964Z,19.00
2017-12-21T00:31:16.148Z,18.70
2017-12-21T00:33:43.152Z,18.50
2017-12-21T00:36:09.324Z,17.57
2017-12-21T00:38:35.550Z,18.77
2017-12-21T00:41:02.557Z,19.13
2017-12-21T00:43:28.725Z,18.77
2017-12-21T00:46:06.943Z,19.33
2017-12-21T00:48:33.834Z,18.40
2017-12-21T00:51:00.016Z,18.40
2017-12-21T00:53:27.006Z,18.50
2017-12-21T00:55:53.198Z,19.80
2017-12-21T00:58:20.137Z,19.40
2017-12-21T01:00:46.310Z,18.23
2017-12-21T01:03:12.499Z,18.00
2017-12-21T01:05:39.414Z,17.67
2017-12-21T01:08:05.954Z,19.37
2017-12-21T01:10:32.850Z,19.50
2017-12-21T01:12:59.079Z,18.30
2017-12-21T01:15:25.264Z,19.07
2017-12-21T01:17:52.219Z,18.70
2017-12-21T01:20:19.211Z,17.40
2017-12-21T01:22:45.421Z,19.33
2017-12-21T01:25:11.604Z,19.03
2017-12-21T01:27:37.854Z,18.10
2017-12-21T01:30:04.089Z,20.53
2017-12-21T01:32:30.249Z,20.03
2017-12-21T01:34:56.427Z,19.00
2017-12-21T01:37:23.391Z,17.07
2017-12-21T01:39:49.558Z,19.47
2017-12-21T01:42:15.798Z,18.10
2017-12-21T01:44:41.988Z,19.27
2017-12-21T01:47:08.206Z,17.87
2017-12-21T01:49:34.338Z,18.77
2017-12-21T01:52:00.811Z,19.93
2017-12-21T01:54:27.050Z,17.50
2017-12-21T01:56:53.193Z,17.17
2017-12-21T01:59:20.165Z,18.40
2017-12-21T02:01:46.337Z,18.07
2017-12-21T02:04:12.563Z,17.10
2017-12-21T02:06:38.832Z,18.57
2017-12-21T02:09:05.739Z,18.60
2017-12-21T02:11:31.908Z,18.17
2017-12-21T02:13:58.143Z,18.50
2017-12-21T02:16:24.328Z,20.93
2017-12-21T02:18:50.519Z,17.83
2017-12-21T02:21:16.825Z,17.50
2017-12-21T02:23:42.990Z,18.47
2017-12-21T02:26:09.258Z,17.07
2017-12-21T02:28:36.211Z,17.57
2017-12-21T02:31:02.470Z,18.03
2017-12-21T02:33:28.632Z,16.03
2017-12-21T02:35:54.810Z,19.03
2017-12-21T02:38:21.078Z,17.73
2017-12-21T02:40:47.279Z,16.53
2017-12-21T02:43:13.543Z,17.43
2017-12-21T02:45:39.805Z,15.73
2017-12-21T02:48:06.784Z,15.63
2017-12-21T02:50:33.038Z,15.70
2017-12-21T02:52:59.222Z,15.43
2017-12-21T02:55:26.195Z,16.37
2017-12-21T02:57:52.462Z,14.97
2017-12-21T03:00:18.679Z,17.30
2017-12-21T03:02:44.896Z,16.27
2017-12-21T03:05:11.164Z,15.70
2017-12-21T03:07:38.159Z,16.00
2017-12-21T03:10:04.384Z,15.83
2017-12-21T03:12:30.607Z,16.43
2017-12-21T03:14:56.834Z,16.63
2017-12-21T03:17:23.059Z,16.10
2017-12-21T03:19:49.506Z,14.23
2017-12-21T03:22:15.710Z,16.40
2017-12-21T03:24:41.946Z,16.23
2017-12-21T03:27:08.131Z,16.40
2017-12-21T03:29:34.374Z,15.00
2017-12-21T03:32:01.342Z,15.23
2017-12-21T03:34:27.536Z,16.20
2017-12-21T03:36:53.782Z,14.57
2017-12-21T03:39:20.747Z,15.93
2017-12-21T03:41:46.912Z,15.40
2017-12-21T03:44:13.072Z,14.87
2017-12-21T03:46:39.311Z,16.50
2017-12-21T03:49:06.270Z,15.70
2017-12-21T03:51:32.489Z,14.13
2017-12-21T03:53:58.687Z,15.03
2017-12-21T03:56:24.936Z,14.93
2017-12-21T03:58:51.879Z,15.03
2017-12-21T04:01:18.822Z,15.00
2017-12-21T04:03:45.070Z,14.27
2017-12-21T04:06:11.313Z,14.07
2017-12-21T04:08:37.539Z,13.63
2017-12-21T04:11:03.740Z,13.23
2017-12-21T04:13:29.912Z,12.90
2017-12-21T04:15:56.151Z,12.40
2017-12-21T04:18:22.368Z,12.53
2017-12-21T04:20:48.542Z,12.57
2017-12-21T04:23:14.734Z,13.00
2017-12-21T04:25:40.963Z,12.77
2017-12-21T04:28:07.103Z,14.70
2017-12-21T04:30:33.278Z,12.97
2017-12-21T04:33:00.221Z,11.87
2017-12-21T04:35:26.440Z,13.47
2017-12-21T04:37:53.416Z,11.60
2017-12-21T04:40:19.641Z,12.10
2017-12-21T04:42:45.820Z,12.97
2017-12-21T04:45:12.011Z,14.30
2017-12-21T04:47:38.237Z,12.77
2017-12-21T04:50:04.448Z,12.33
2017-12-21T04:52:30.652Z,12.30
2017-12-21T04:54:57.719Z,12.03
2017-12-21T04:57:23.910Z,12.33
2017-12-21T04:59:50.126Z,12.13
2017-12-21T05:02:16.372Z,11.70
2017-12-21T05:04:42.534Z,12.33
2017-12-21T05:07:08.742Z,10.47
2017-12-21T05:09:35.726Z,11.70
2017-12-21T05:12:01.934Z,10.97
2017-12-21T05:14:28.198Z,13.80
2017-12-21T05:16:54.415Z,15.53
2017-12-21T05:19:20.660Z,13.93
2017-12-21T05:21:46.851Z,13.90
2017-12-21T05:24:13.119Z,11.43
2017-12-21T05:26:39.358Z,11.70
2017-12-21T05:29:05.550Z,12.53
2017-12-21T05:31:31.698Z,11.33
2017-12-21T05:33:57.884Z,11.90
2017-12-21T05:36:24.077Z,12.47
2017-12-21T05:38:50.266Z,11.13
2017-12-21T05:41:16.470Z,12.47
2017-12-21T05:43:42.648Z,12.50
2017-12-21T05:46:08.800Z,12.10
2017-12-21T05:48:35.778Z,12.50
2017-12-21T05:51:01.995Z,12.67
2017-12-21T05:53:28.177Z,12.33
2017-12-21T05:55:54.342Z,11.53
2017-12-21T05:58:21.256Z,11.83
2017-12-21T06:00:48.320Z,10.90
2017-12-21T06:03:15.334Z,11.67
2017-12-21T06:05:41.612Z,12.50
2017-12-21T06:08:07.896Z,11.90
2017-12-21T06:13:26.535Z,10.77
2017-12-21T06:15:52.731Z,11.67
2017-12-21T06:18:19.652Z,10.93
2017-12-21T06:20:45.843Z,11.20
2017-12-21T06:23:12.047Z,11.10
2017-12-21T06:25:38.289Z,10.53
2017-12-21T06:28:04.484Z,10.97
2017-12-21T06:30:35.968Z,9.97
2017-12-21T06:33:02.120Z,11.13
2017-12-21T06:35:28.266Z,11.10
2017-12-21T06:37:54.441Z,10.00
2017-12-21T06:40:20.677Z,10.10
2017-12-21T06:42:46.875Z,11.00
2017-12-21T06:45:13.069Z,9.77
2017-12-21T06:47:39.276Z,10.27
2017-12-21T06:50:05.454Z,11.00
2017-12-21T06:52:32.423Z,10.40
2017-12-21T06:54:58.614Z,9.27
2017-12-21T06:57:24.796Z,10.07
2017-12-21T06:59:51.034Z,10.00
2017-12-21T07:02:17.299Z,9.37
2017-12-21T07:04:44.236Z,8.87
2017-12-21T07:07:10.436Z,9.70
2017-12-21T07:09:36.886Z,8.93
2017-12-21T07:12:03.110Z,8.70
2017-12-21T07:14:29.272Z,10.10
2017-12-21T07:16:56.247Z,8.93
2017-12-21T07:19:22.460Z,9.17
2017-12-21T07:21:48.690Z,9.10
2017-12-21T07:24:14.869Z,8.90
2017-12-21T07:26:41.005Z,10.73
2017-12-21T07:29:07.189Z,8.80
2017-12-21T07:31:33.381Z,7.77
2017-12-21T07:34:00.371Z,9.40
2017-12-21T07:36:26.563Z,8.20
2017-12-21T07:38:52.829Z,8.07
2017-12-21T07:41:19.326Z,8.83
2017-12-21T07:43:45.501Z,8.70
2017-12-21T07:46:11.724Z,7.60
2017-12-21T07:48:37.956Z,8.77
2017-12-21T07:51:04.134Z,7.57
2017-12-21T07:53:31.109Z,7.83
2017-12-21T07:55:57.287Z,6.93
2017-12-21T07:58:23.450Z,7.23
2017-12-21T08:00:49.631Z,6.87
2017-12-21T08:03:15.851Z,7.03
2017-12-21T08:05:42.049Z,7.13
2017-12-21T08:08:08.265Z,6.80
2017-12-21T08:10:34.514Z,6.57
2017-12-21T08:13:00.698Z,7.43
2017-12-21T08:15:27.631Z,6.67
2017-12-21T08:17:54.568Z,6.77
2017-12-21T08:20:20.795Z,6.30
2017-12-21T08:22:46.989Z,6.67
2017-12-21T08:25:13.190Z,6.20
2017-12-21T08:27:39.340Z,6.27
2017-12-21T08:30:05.648Z,6.33
2017-12-21T08:32:31.913Z,5.60
2017-12-21T08:34:58.073Z,5.70
2017-12-21T08:37:24.318Z,5.57
2017-12-21T08:39:50.553Z,6.00
2017-12-21T08:42:16.713Z,6.50
2017-12-21T08:44:42.898Z,6.23
2017-12-21T08:47:09.194Z,6.20
2017-12-21T08:49:35.366Z,6.30
2017-12-21T08:52:01.759Z,6.90
2017-12-21T08:54:27.907Z,5.93
2017-12-21T08:56:54.822Z,6.93
2017-12-21T08:59:20.995Z,5.63
2017-12-21T09:01:47.255Z,5.70
2017-12-21T09:04:13.427Z,5.80
2017-12-21T09:06:40.332Z,5.67
2017-12-21T09:09:06.507Z,6.27
2017-12-21T09:11:33.441Z,6.20
2017-12-21T09:13:59.615Z,6.03
2017-12-21T09:16:25.862Z,6.00
2017-12-21T09:18:52.044Z,5.63
2017-12-21T09:21:18.192Z,5.50
2017-12-21T09:23:44.380Z,6.77
2017-12-21T09:26:10.603Z,6.53
2017-12-21T09:28:36.820Z,6.27
2017-12-21T09:31:03.043Z,5.60
2017-12-21T09:33:29.295Z,5.70
2017-12-21T09:35:56.228Z,6.40
2017-12-21T09:38:22.435Z,5.90
2017-12-21T09:40:48.577Z,6.47
2017-12-21T09:43:14.724Z,6.60
2017-12-21T09:45:41.699Z,6.50
2017-12-21T09:48:07.919Z,5.90
2017-12-21T09:50:34.158Z,6.30
2017-12-21T09:53:00.368Z,5.70
2017-12-21T09:55:27.295Z,6.17
2017-12-21T09:57:54.251Z,6.50
2017-12-21T10:00:21.217Z,6.00
2017-12-21T10:02:47.366Z,6.63
2017-12-21T10:05:13.532Z,6.53
2017-12-21T10:07:40.491Z,6.33
2017-12-21T10:10:07.446Z,7.07
2017-12-21T10:12:33.641Z,6.40
2017-12-21T10:14:59.841Z,7.40
2017-12-21T10:17:26.010Z,6.47
2017-12-21T10:19:52.996Z,7.37
2017-12-21T10:22:19.235Z,6.27
2017-12-21T10:24:45.441Z,5.93
2017-12-21T10:27:11.636Z,6.83
2017-12-21T10:29:38.606Z,7.13
2017-12-21T10:32:05.563Z,7.03
2017-12-21T10:34:31.767Z,7.70
2017-12-21T10:36:58.723Z,8.33
2017-12-21T10:39:24.927Z,8.37
2017-12-21T10:41:51.131Z,8.13
2017-12-21T10:44:17.370Z,8.20
2017-12-21T10:46:43.557Z,8.33
2017-12-21T10:49:09.796Z,8.37
2017-12-21T10:51:35.959Z,7.83
2017-12-21T10:54:02.067Z,8.93
2017-12-21T10:56:28.226Z,8.30
2017-12-21T10:58:54.382Z,7.60
2017-12-21T11:01:20.614Z,7.70
2017-12-21T11:03:46.834Z,8.53
2017-12-21T11:06:13.003Z,9.40
2017-12-21T11:08:39.225Z,9.63
2017-12-21T11:11:05.473Z,10.17
2017-12-21T11:13:31.694Z,8.83
2017-12-21T11:15:57.908Z,8.97
2017-12-21T11:18:24.124Z,9.57
2017-12-21T11:20:50.360Z,8.97
2017-12-21T11:23:16.619Z,10.00
2017-12-21T11:25:42.784Z,9.97
2017-12-21T11:28:08.994Z,9.70
2017-12-21T11:30:35.970Z,9.07
2017-12-21T11:33:02.164Z,8.83
2017-12-21T11:35:29.142Z,8.50
2017-12-21T11:37:55.347Z,9.27
2017-12-21T11:40:21.603Z,9.83
2017-12-21T11:42:47.783Z,9.80
2017-12-21T11:45:13.951Z,9.03
2017-12-21T11:47:40.170Z,9.00
2017-12-21T11:50:06.327Z,9.60
2017-12-21T11:52:32.495Z,7.73
2017-12-21T11:55:07.355Z,8.87
2017-12-21T11:57:35.196Z,9.93
2017-12-21T12:00:02.201Z,9.20
2017-12-21T12:02:28.418Z,9.50
2017-12-21T12:04:54.650Z,9.40
2017-12-21T12:07:20.849Z,9.70
2017-12-21T12:09:47.007Z,9.87
2017-12-21T12:12:13.233Z,9.67
2017-12-21T12:14:39.380Z,9.70
2017-12-21T12:17:05.587Z,9.53
2017-12-21T12:19:31.788Z,9.47
2017-12-21T12:21:57.995Z,10.30
2017-12-21T12:24:24.884Z,9.90
2017-12-21T12:26:51.123Z,10.43
2017-12-21T12:29:17.323Z,10.03
2017-12-21T12:31:43.523Z,9.47
2017-12-21T12:34:10.460Z,8.10
2017-12-21T12:36:37.345Z,7.57
2017-12-21T12:39:03.652Z,9.57
2017-12-21T12:41:30.915Z,8.00
2017-12-21T12:43:57.109Z,8.23
2017-12-21T12:46:23.322Z,7.33
2017-12-21T12:48:49.492Z,7.33
2017-12-21T12:51:16.445Z,6.80
2017-12-21T12:53:42.714Z,8.47
2017-12-21T12:56:08.903Z,6.83
2017-12-21T12:58:35.183Z,7.00
2017-12-21T13:01:01.431Z,7.03
2017-12-21T13:03:28.430Z,7.43
2017-12-21T13:05:54.733Z,7.37
2017-12-21T13:08:20.972Z,7.37
2017-12-21T13:10:47.147Z,7.30
2017-12-21T13:13:13.293Z,8.80
2017-12-21T13:15:39.491Z,9.13
2017-12-21T13:18:05.636Z,7.50
2017-12-21T13:20:31.876Z,7.00
2017-12-21T13:22:58.828Z,6.50
2017-12-21T13:25:25.103Z,7.37
2017-12-21T13:27:51.378Z,7.40
2017-12-21T13:30:18.393Z,6.70
2017-12-21T13:32:44.690Z,7.00
2017-12-21T13:35:11.061Z,7.13
2017-12-21T13:37:37.290Z,7.17
2017-12-21T13:40:03.868Z,7.60
2017-12-21T13:42:30.779Z,7.10
2017-12-21T13:44:56.955Z,5.77
2017-12-21T13:47:23.107Z,6.37
2017-12-21T13:49:49.270Z,6.23
2017-12-21T13:52:16.232Z,6.40
2017-12-21T13:54:43.306Z,6.60
2017-12-21T13:57:09.563Z,5.80
2017-12-21T13:59:35.816Z,5.90
2017-12-21T14:02:02.048Z,6.00
2017-12-21T14:04:28.255Z,5.73
2017-12-21T14:06:54.558Z,5.93
2017-12-21T14:09:21.155Z,5.63
2017-12-21T14:11:48.060Z,6.63
2017-12-21T14:14:14.245Z,5.50
2017-12-21T14:16:41.210Z,5.20
2017-12-21T14:19:07.398Z,5.20
2017-12-21T14:21:34.306Z,6.20
2017-12-21T14:24:00.531Z,5.63
2017-12-21T14:26:26.963Z,5.37
2017-12-21T14:28:53.148Z,4.73
2017-12-21T14:31:19.361Z,5.43
2017-12-21T14:33:46.256Z,6.10
2017-12-21T14:36:12.419Z,5.50
2017-12-21T14:38:38.594Z,5.53
2017-12-21T14:41:04.763Z,5.70
2017-12-21T14:43:30.911Z,5.80
2017-12-21T14:45:57.852Z,6.10
2017-12-21T14:48:24.072Z,5.43
2017-12-21T14:50:50.231Z,5.80
2017-12-21T14:53:16.435Z,5.80
2017-12-21T14:55:43.304Z,5.20
2017-12-21T14:58:09.512Z,5.40
2017-12-21T15:00:36.451Z,5.70
2017-12-21T15:03:03.432Z,5.30
2017-12-21T15:05:29.588Z,5.30
2017-12-21T15:07:55.779Z,5.53
2017-12-21T15:10:22.025Z,5.97
2017-12-21T15:12:48.235Z,4.90
2017-12-21T15:15:14.454Z,5.20
2017-12-21T15:17:40.703Z,5.10
2017-12-21T15:20:06.924Z,5.47
2017-12-21T15:22:33.143Z,5.80
2017-12-21T15:24:59.343Z,5.63
2017-12-21T15:27:25.522Z,6.63
2017-12-21T15:29:51.738Z,5.70
2017-12-21T15:32:17.973Z,5.87
2017-12-21T15:34:44.123Z,5.40
2017-12-21T15:37:10.565Z,4.80
2017-12-21T15:39:36.832Z,4.53
2017-12-21T15:42:03.843Z,4.60
2017-12-21T15:44:30.024Z,4.70
2017-12-21T15:46:56.235Z,5.90
2017-12-21T15:49:23.158Z,5.00
2017-12-21T15:51:49.330Z,4.37
2017-12-21T15:54:15.498Z,4.00
2017-12-21T15:56:41.657Z,4.00
2017-12-21T15:59:08.530Z,4.50
2017-12-21T16:01:34.750Z,4.57
2017-12-21T16:04:00.950Z,3.80
2017-12-21T16:06:27.949Z,3.90
2017-12-21T16:08:54.190Z,4.33
2017-12-21T16:11:20.457Z,3.70
2017-12-21T16:13:47.443Z,3.60
2017-12-21T16:16:13.644Z,3.43
2017-12-21T16:18:39.897Z,4.30
2017-12-21T16:21:06.061Z,4.00
2017-12-21T16:23:32.303Z,4.10
2017-12-21T16:25:58.523Z,3.60
2017-12-21T16:28:24.698Z,3.93
2017-12-21T16:30:50.890Z,3.80
2017-12-21T16:33:17.025Z,3.00
2017-12-21T16:35:43.949Z,3.13
2017-12-21T16:38:10.176Z,3.30
2017-12-21T16:40:36.414Z,3.03
2017-12-21T16:43:02.665Z,3.63
2017-12-21T16:45:29.617Z,3.20
2017-12-21T16:47:55.779Z,3.23
2017-12-21T16:50:22.008Z,3.20
2017-12-21T16:52:48.225Z,3.00
2017-12-21T16:55:15.220Z,2.83
2017-12-21T16:57:41.476Z,3.17
2017-12-21T17:00:07.703Z,2.83
2017-12-21T17:02:33.875Z,3.33
2017-12-21T17:05:00.047Z,2.70
2017-12-21T17:07:26.996Z,3.13
2017-12-21T17:09:53.989Z,3.30
2017-12-21T17:12:20.220Z,3.20
2017-12-21T17:14:46.459Z,2.30
2017-12-21T17:17:12.638Z,2.90
2017-12-21T17:19:38.780Z,2.47
2017-12-21T17:22:04.974Z,2.47
2017-12-21T17:24:31.908Z,2.40
2017-12-21T17:26:58.841Z,2.10
2017-12-21T17:29:25.039Z,2.27
2017-12-21T17:31:51.262Z,2.80
2017-12-21T17:34:17.542Z,2.63
2017-12-21T17:36:44.799Z,3.03
2017-12-21T17:39:11.742Z,3.27
2017-12-21T17:41:38.723Z,3.00
2017-12-21T17:44:05.033Z,2.33
2017-12-21T17:46:31.960Z,2.87
2017-12-21T17:48:58.126Z,3.40
2017-12-21T17:51:24.333Z,2.93
2017-12-21T17:53:50.488Z,3.97
2017-12-21T17:56:16.728Z,3.77
2017-12-21T17:58:42.948Z,3.50
2017-12-21T18:01:09.119Z,4.00
2017-12-21T18:03:35.259Z,4.10
2017-12-21T18:06:02.211Z,4.87
2017-12-21T18:08:28.457Z,4.00
2017-12-21T18:10:54.693Z,3.90
2017-12-21T18:13:21.103Z,4.17
2017-12-21T18:15:47.328Z,5.27
2017-12-21T18:18:14.227Z,5.70
2017-12-21T18:20:40.523Z,5.93
2017-12-21T18:23:06.723Z,8.20
2017-12-21T18:25:33.666Z,8.33
2017-12-21T18:28:00.625Z,6.47
2017-12-21T18:30:26.836Z,5.10
2017-12-21T18:32:53.794Z,6.50
2017-12-21T18:35:20.734Z,7.30
2017-12-21T18:37:47.738Z,6.10
2017-12-21T18:40:13.955Z,5.57
2017-12-21T18:42:40.168Z,5.57
2017-12-21T18:45:06.324Z,6.97
2017-12-21T18:47:32.580Z,7.40
2017-12-21T18:49:58.842Z,6.60
2017-12-21T18:52:25.000Z,6.90
2017-12-21T18:54:51.274Z,7.53
2017-12-21T18:57:18.195Z,6.53
2017-12-21T18:59:44.392Z,7.23
2017-12-21T19:02:10.593Z,7.07
2017-12-21T19:04:36.835Z,7.53
2017-12-21T19:07:03.052Z,7.40
2017-12-21T19:09:29.228Z,6.60
2017-12-21T19:11:55.405Z,7.13
2017-12-21T19:14:21.667Z,6.30
2017-12-21T19:16:47.915Z,7.07
2017-12-21T19:19:14.115Z,7.10
2017-12-21T19:21:40.282Z,7.00
2017-12-21T19:24:06.572Z,7.33
2017-12-21T19:26:32.833Z,7.50
2017-12-21T19:28:58.979Z,6.07
2017-12-21T19:31:25.191Z,7.40
2017-12-21T19:33:51.342Z,7.00
2017-12-21T19:36:18.470Z,7.13
2017-12-21T19:38:45.455Z,7.30
2017-12-21T19:41:11.708Z,7.43
2017-12-21T19:43:37.921Z,7.00
2017-12-21T19:46:04.227Z,7.97
2017-12-21T19:48:31.144Z,7.43
2017-12-21T19:50:57.483Z,7.63
2017-12-21T19:53:23.754Z,7.40
2017-12-21T19:55:49.961Z,6.80
2017-12-21T19:58:16.901Z,8.30
2017-12-21T20:00:43.821Z,8.70
2017-12-21T20:03:10.015Z,7.33
2017-12-21T20:05:36.252Z,8.10
2017-12-21T20:08:02.468Z,7.57
2017-12-21T20:10:28.710Z,7.77
2017-12-21T20:12:54.989Z,8.30
2017-12-21T20:15:22.023Z,8.90
2017-12-21T20:17:48.996Z,8.40
2017-12-21T20:20:15.292Z,8.23
2017-12-21T20:22:41.531Z,9.40
2017-12-21T20:25:08.560Z,8.70
2017-12-21T20:27:34.746Z,8.10
2017-12-21T20:30:01.026Z,8.67
2017-12-21T20:32:27.234Z,8.17
2017-12-21T20:34:53.424Z,8.63
2017-12-21T20:37:19.650Z,8.60
2017-12-21T20:39:45.858Z,8.50
2017-12-21T20:42:12.832Z,8.57
2017-12-21T20:44:39.033Z,9.10
2017-12-21T20:47:05.989Z,9.30
2017-12-21T20:49:32.160Z,9.07
2017-12-21T20:51:58.419Z,9.10
2017-12-21T20:54:24.626Z,10.03
2017-12-21T20:56:50.855Z,9.50
2017-12-21T20:59:17.091Z,9.77
2017-12-21T21:01:43.313Z,9.43
2017-12-21T21:04:09.544Z,9.87
2017-12-21T21:06:35.876Z,9.00
2017-12-21T21:09:02.160Z,9.00
2017-12-21T21:11:28.411Z,9.30
2017-12-21T21:13:54.618Z,9.20
2017-12-21T21:16:20.888Z,9.20
2017-12-21T21:18:47.061Z,8.60
2017-12-21T21:21:13.288Z,8.67
2017-12-21T21:23:40.542Z,8.57
2017-12-21T21:26:06.762Z,8.53
2017-12-21T21:28:33.678Z,8.30
2017-12-21T21:31:08.301Z,8.07
2017-12-21T21:33:34.787Z,8.70
2017-12-21T21:36:01.128Z,9.30
2017-12-21T21:38:27.348Z,8.50
2017-12-21T21:40:53.575Z,8.27
2017-12-21T21:43:19.967Z,8.70
2017-12-21T21:45:47.142Z,8.20
2017-12-21T21:48:13.453Z,8.60
2017-12-21T21:50:40.662Z,9.20
2017-12-21T21:53:07.195Z,8.70
2017-12-21T21:55:33.623Z,7.83
2017-12-21T21:58:00.128Z,7.50
2017-12-21T22:00:26.694Z,9.03
2017-12-21T22:02:52.859Z,7.83
2017-12-21T22:05:19.081Z,8.30
2017-12-21T22:07:45.257Z,8.90
2017-12-21T22:10:11.495Z,8.30
2017-12-21T22:12:37.734Z,8.53
2017-12-21T22:15:03.929Z,9.33
2017-12-21T22:17:30.104Z,8.47
2017-12-21T22:19:56.273Z,8.50
2017-12-21T22:22:22.467Z,8.40
2017-12-21T22:24:48.655Z,9.03
2017-12-21T22:27:14.839Z,10.03
2017-12-21T22:29:41.007Z,9.70
2017-12-21T22:32:07.173Z,8.50
2017-12-21T22:34:33.441Z,9.67
2017-12-21T22:37:00.913Z,9.13
2017-12-21T22:39:27.084Z,9.30
2017-12-21T22:41:53.352Z,9.20
2017-12-21T22:44:19.534Z,9.33
2017-12-21T22:46:45.809Z,10.37
2017-12-21T22:49:12.706Z,9.60
2017-12-21T22:51:38.926Z,10.30
2017-12-21T22:54:05.133Z,10.70
2017-12-21T22:56:31.347Z,10.60
2017-12-21T22:58:57.595Z,10.10
2017-12-21T23:01:23.828Z,9.43
2017-12-21T23:03:50.352Z,9.80
2017-12-21T23:06:16.552Z,9.20
2017-12-21T23:08:43.515Z,8.80
2017-12-21T23:11:09.722Z,10.00
2017-12-21T23:13:36.630Z,9.67
2017-12-21T23:16:02.821Z,10.50
2017-12-21T23:18:29.060Z,10.53
2017-12-21T23:20:55.235Z,9.00
2017-12-21T23:23:21.471Z,10.30
2017-12-21T23:25:48.459Z,10.13
2017-12-21T23:28:14.708Z,10.73
2017-12-21T23:30:40.924Z,10.63
2017-12-21T23:33:07.150Z,10.63
2017-12-21T23:35:33.385Z,11.00
2017-12-21T23:37:59.624Z,9.53
2017-12-21T23:40:25.867Z,10.50
2017-12-21T23:42:52.078Z,10.47
2017-12-21T23:45:18.313Z,10.60
2017-12-21T23:47:44.572Z,11.40
2017-12-21T23:50:10.791Z,11.43
2017-12-21T23:52:37.059Z,11.97
2017-12-21T23:55:03.260Z,10.37
2017-12-21T23:57:29.419Z,10.90
2017-12-21T23:59:55.575Z,10.97
